Time;durP1;ratioP1;P1;durP2;ratioP2;P2;SDS_P1;SDS_P2;PMS_P1;PMS_P2;Temp;Humidity;BMP_temperature;BMP_pressure;BME280_temperature;BME280_humidity;BME280_pressure;Samples;Min_cycle;Max_cycle;Signal;HPM_P1;HPM_P2
2021/07/26 00:00:22;;;;;;;3.03;2.75;;;20.90;99.90;;;;;;2114810;28;20462;-67
2021/07/26 00:01:22;;;;;;;4.85;3.15;;;20.90;99.90;;;;;;2114456;28;20030;-67
2021/07/26 00:02:23;;;;;;;6.38;3.45;;;20.90;99.90;;;;;;2114811;28;20069;-67
2021/07/26 00:03:24;;;;;;;3.55;3.25;;;20.90;99.90;;;;;;2113999;28;20020;-67
2021/07/26 00:04:25;;;;;;;3.45;3.15;;;20.80;99.90;;;;;;2114702;28;20077;-67
2021/07/26 00:05:26;;;;;;;3.40;3.08;;;20.90;99.90;;;;;;2114770;28;20563;-67
2021/07/26 00:06:26;;;;;;;3.53;3.22;;;20.80;99.90;;;;;;2114908;28;20047;-67
2021/07/26 00:07:27;;;;;;;5.85;3.53;;;20.80;99.90;;;;;;2114302;28;20413;-67
2021/07/26 00:08:27;;;;;;;3.88;3.58;;;20.80;99.90;;;;;;2110099;28;20411;-67
2021/07/26 00:09:28;;;;;;;3.42;2.95;;;20.80;99.90;;;;;;2106129;28;20045;-68
2021/07/26 00:10:28;;;;;;;4.03;3.42;;;20.80;99.90;;;;;;2106409;28;20480;-68
2021/07/26 00:11:29;;;;;;;2.83;2.63;;;20.80;99.90;;;;;;2105952;28;20021;-68
2021/07/26 00:12:31;;;;;;;4.65;3.10;;;20.80;99.90;;;;;;2106293;28;20032;-67
2021/07/26 00:13:31;;;;;;;4.43;3.15;;;20.80;99.90;;;;;;2105858;28;20336;-67
2021/07/26 00:14:33;;;;;;;6.50;3.10;;;20.80;99.90;;;;;;2106330;28;20054;-67
2021/07/26 00:15:33;;;;;;;3.45;2.72;;;20.70;99.90;;;;;;2111305;28;20028;-67
2021/07/26 00:16:34;;;;;;;3.45;2.75;;;20.70;99.90;;;;;;2106348;28;20467;-67
2021/07/26 00:17:35;;;;;;;2.92;2.72;;;20.70;99.90;;;;;;2107457;28;20051;-67
2021/07/26 00:18:35;;;;;;;5.20;3.10;;;20.70;99.90;;;;;;2107879;28;20089;-68
2021/07/26 00:19:36;;;;;;;5.40;3.63;;;20.70;99.90;;;;;;2107175;28;20615;-67
2021/07/26 00:20:36;;;;;;;3.42;3.00;;;20.70;99.90;;;;;;2109736;28;20020;-67
2021/07/26 00:21:37;;;;;;;7.03;3.15;;;20.70;99.90;;;;;;2105795;28;20016;-68
2021/07/26 00:22:40;;;;;;;9.00;3.67;;;20.70;99.90;;;;;;2110384;28;20031;-68
2021/07/26 00:23:41;;;;;;;4.95;3.03;;;20.70;99.90;;;;;;2110191;28;20028;-67
2021/07/26 00:24:41;;;;;;;4.45;3.35;;;20.70;99.90;;;;;;2110708;28;20054;-67
2021/07/26 00:25:42;;;;;;;3.53;2.90;;;20.70;99.90;;;;;;2108526;28;20497;-67
2021/07/26 00:26:42;;;;;;;4.45;2.90;;;20.70;99.90;;;;;;2110363;28;20019;-67
2021/07/26 00:27:43;;;;;;;4.55;2.67;;;20.60;99.90;;;;;;2113291;28;20031;-67
2021/07/26 00:28:44;;;;;;;6.38;3.20;;;20.60;99.90;;;;;;2113731;28;20028;-68
2021/07/26 00:29:44;;;;;;;3.88;3.17;;;20.60;99.90;;;;;;2110882;28;20027;-67
2021/07/26 00:30:45;;;;;;;6.53;3.30;;;20.60;99.90;;;;;;2109544;28;20020;-67
2021/07/26 00:31:45;;;;;;;6.57;3.35;;;20.60;99.90;;;;;;2105933;28;20016;-68
2021/07/26 00:32:46;;;;;;;6.57;3.10;;;20.60;99.90;;;;;;2105639;28;20036;-67
2021/07/26 00:34:13;;;;;;;6.80;3.00;;;20.60;99.90;;;;;;2106058;28;20387;-67
2021/07/26 00:35:13;;;;;;;3.85;2.60;;;20.60;99.90;;;;;;2105768;28;20499;-67
2021/07/26 00:36:14;;;;;;;5.18;3.15;;;20.50;99.90;;;;;;2106298;28;20491;-67
2021/07/26 00:37:14;;;;;;;4.95;2.85;;;20.50;99.90;;;;;;2105880;28;20028;-68
2021/07/26 00:38:15;;;;;;;4.18;2.78;;;20.50;99.90;;;;;;2101609;28;20027;-68
2021/07/26 00:39:24;;;;;;;5.57;3.22;;;20.50;99.90;;;;;;2106970;28;20028;-67
2021/07/26 00:40:25;;;;;;;7.05;3.35;;;20.50;99.90;;;;;;2111895;28;20487;-67
2021/07/26 00:41:26;;;;;;;3.45;3.10;;;20.40;99.90;;;;;;2114369;28;20051;-67
2021/07/26 00:42:27;;;;;;;7.72;2.92;;;20.40;99.90;;;;;;2106853;28;20465;-67
2021/07/26 00:43:27;;;;;;;5.93;2.90;;;20.40;99.90;;;;;;2104936;28;20035;-67
2021/07/26 00:44:31;;;;;;;7.22;3.17;;;20.40;99.90;;;;;;2106201;28;20377;-67
2021/07/26 00:45:31;;;;;;;3.10;2.80;;;20.40;99.90;;;;;;2105850;28;20421;-67
2021/07/26 00:46:32;;;;;;;6.93;3.15;;;20.40;99.90;;;;;;2106182;28;20032;-67
2021/07/26 00:47:33;;;;;;;4.97;3.05;;;20.40;99.90;;;;;;2105861;28;20024;-67
2021/07/26 00:48:34;;;;;;;7.93;2.97;;;20.30;99.90;;;;;;2105996;28;20031;-68
2021/07/26 00:49:34;;;;;;;3.35;2.75;;;20.30;99.90;;;;;;2106039;28;20032;-67
2021/07/26 00:50:35;;;;;;;3.38;3.08;;;20.30;99.90;;;;;;2105783;28;20054;-67
2021/07/26 00:51:38;;;;;;;3.15;2.83;;;20.30;99.90;;;;;;2107079;28;20090;-68
2021/07/26 00:52:39;;;;;;;3.00;2.60;;;20.30;99.90;;;;;;2114181;28;20028;-68
2021/07/26 00:53:39;;;;;;;3.63;2.35;;;20.30;99.90;;;;;;2111657;28;20047;-68
2021/07/26 00:54:40;;;;;;;5.32;2.72;;;20.30;99.90;;;;;;2114279;27;20095;-68
2021/07/26 00:55:41;;;;;;;5.43;2.83;;;20.30;99.90;;;;;;2106884;28;20023;-68
2021/07/26 00:56:42;;;;;;;6.95;3.13;;;20.30;99.90;;;;;;2106161;28;20468;-67
2021/07/26 00:57:43;;;;;;;5.35;3.15;;;20.30;99.90;;;;;;2105954;28;20064;-68
2021/07/26 00:58:44;;;;;;;4.68;2.60;;;20.20;99.90;;;;;;2106044;28;20028;-68
2021/07/26 00:59:45;;;;;;;2.97;2.67;;;20.20;99.90;;;;;;2105825;28;20417;-68
2021/07/26 01:00:45;;;;;;;3.28;2.97;;;20.20;99.90;;;;;;2106573;28;20035;-68
2021/07/26 01:01:46;;;;;;;4.47;2.97;;;20.20;99.90;;;;;;2105458;28;20569;-68
2021/07/26 01:02:47;;;;;;;4.38;2.50;;;20.20;99.90;;;;;;2105485;28;20103;-68
2021/07/26 01:03:47;;;;;;;8.20;3.17;;;20.20;99.90;;;;;;2105549;28;20421;-68
2021/07/26 01:04:48;;;;;;;7.60;2.95;;;20.20;99.90;;;;;;2105937;28;20024;-68
2021/07/26 01:05:49;;;;;;;4.72;3.25;;;20.20;99.90;;;;;;2105385;28;20035;-68
2021/07/26 01:06:49;;;;;;;3.97;3.00;;;20.10;99.90;;;;;;2105913;28;20028;-68
2021/07/26 01:07:50;;;;;;;3.08;2.80;;;20.20;99.90;;;;;;2105793;28;20103;-68
2021/07/26 01:08:50;;;;;;;3.65;3.10;;;20.10;99.90;;;;;;2106091;28;20028;-68
2021/07/26 01:09:51;;;;;;;6.65;3.00;;;20.10;99.90;;;;;;2105728;28;20055;-68
2021/07/26 01:10:52;;;;;;;3.47;3.17;;;20.10;99.90;;;;;;2105914;28;20503;-68
2021/07/26 01:11:53;;;;;;;3.72;2.80;;;20.10;99.90;;;;;;2105357;28;20028;-68
2021/07/26 01:12:53;;;;;;;7.05;2.85;;;20.10;99.90;;;;;;2105579;28;20036;-68
2021/07/26 01:13:55;;;;;;;3.00;2.67;;;20.10;99.90;;;;;;2105709;28;20024;-68
2021/07/26 01:14:57;;;;;;;5.28;3.17;;;20.10;99.90;;;;;;2105698;28;20026;-68
2021/07/26 01:15:58;;;;;;;3.95;3.38;;;20.00;99.90;;;;;;2105783;28;20009;-68
2021/07/26 01:16:59;;;;;;;3.58;2.90;;;20.00;99.90;;;;;;2105945;28;20052;-68
2021/07/26 01:18:21;;;;;;;4.25;2.70;;;20.00;99.90;;;;;;2105960;28;20016;-68
2021/07/26 01:19:22;;;;;;;4.35;3.03;;;20.00;99.90;;;;;;2105793;28;20024;-68
2021/07/26 01:20:22;;;;;;;4.05;3.20;;;20.00;99.90;;;;;;2105620;28;20036;-68
2021/07/26 01:21:23;;;;;;;7.28;3.30;;;19.90;99.90;;;;;;2111852;28;20063;-68
2021/07/26 01:22:24;;;;;;;5.93;3.15;;;19.90;99.90;;;;;;2113991;28;20483;-68
2021/07/26 01:23:26;;;;;;;3.90;2.75;;;19.90;99.90;;;;;;2114075;28;20055;-68
2021/07/26 01:24:26;;;;;;;3.22;2.92;;;20.00;99.90;;;;;;2114014;28;20467;-68
2021/07/26 01:25:27;;;;;;;6.10;2.80;;;19.90;99.90;;;;;;2114365;28;20439;-68
2021/07/26 01:26:27;;;;;;;2.85;2.60;;;19.90;99.90;;;;;;2113989;28;20055;-68
2021/07/26 01:27:28;;;;;;;3.10;2.80;;;19.90;99.90;;;;;;2114243;28;20032;-68
2021/07/26 01:28:33;;;;;;;7.60;3.40;;;19.90;99.90;;;;;;2114278;28;20110;-68
2021/07/26 01:29:34;;;;;;;5.32;3.42;;;19.90;99.90;;;;;;2113475;28;20479;-68
2021/07/26 01:30:34;;;;;;;5.70;3.15;;;19.80;99.90;;;;;;2113566;28;20721;-68
2021/07/26 01:31:35;;;;;;;4.72;3.47;;;19.90;99.90;;;;;;2111272;28;20016;-68
2021/07/26 01:32:35;;;;;;;4.70;3.10;;;19.80;99.90;;;;;;2104579;28;20110;-68
2021/07/26 01:33:37;;;;;;;8.48;2.90;;;19.80;99.90;;;;;;2105269;28;20032;-68
2021/07/26 01:34:38;;;;;;;3.30;3.00;;;19.80;99.90;;;;;;2104732;28;20104;-68
2021/07/26 01:35:39;;;;;;;4.32;2.85;;;19.80;99.90;;;;;;2108796;28;20121;-68
2021/07/26 01:36:40;;;;;;;4.22;3.00;;;19.80;99.90;;;;;;2114424;28;20459;-68
2021/07/26 01:37:40;;;;;;;3.35;2.90;;;19.80;99.90;;;;;;2114220;28;20032;-67
2021/07/26 01:38:44;;;;;;;4.80;3.08;;;19.80;99.90;;;;;;2114308;28;20028;-68
2021/07/26 01:39:45;;;;;;;5.47;3.10;;;19.70;99.90;;;;;;2108989;28;20032;-68
2021/07/26 01:40:50;;;;;;;5.03;2.80;;;19.70;99.90;;;;;;2111551;28;20106;-68
2021/07/26 01:41:54;;;;;;;3.53;2.88;;;19.70;99.90;;;;;;2110548;28;20020;-68
2021/07/26 01:43:02;;;;;;;3.80;3.10;;;19.70;99.90;;;;;;2096964;28;20374;-68
2021/07/26 01:44:06;;;;;;;4.00;2.55;;;19.70;99.90;;;;;;2104053;28;20099;-68
2021/07/26 01:45:08;;;;;;;3.35;2.90;;;19.70;99.90;;;;;;2105788;28;20027;-68
2021/07/26 01:46:35;;;;;;;5.18;3.10;;;19.70;99.90;;;;;;2105739;28;20028;-68
2021/07/26 01:47:46;;;;;;;4.30;2.80;;;19.70;99.90;;;;;;2097357;28;20030;-68
2021/07/26 01:48:49;;;;;;;3.63;2.90;;;19.60;99.90;;;;;;2102586;28;20020;-68
2021/07/26 01:50:18;;;;;;;4.50;2.70;;;19.60;99.90;;;;;;2105473;28;20028;-68
2021/07/26 01:51:27;;;;;;;5.88;2.85;;;19.60;99.90;;;;;;2097538;28;20041;-68
2021/07/26 01:52:28;;;;;;;5.15;2.72;;;19.60;99.90;;;;;;2102116;28;20025;-68
2021/07/26 01:53:30;;;;;;;5.70;3.00;;;19.50;99.90;;;;;;2110623;28;20023;-68
2021/07/26 01:54:30;;;;;;;3.55;2.67;;;19.50;99.90;;;;;;2114382;28;20051;-68
2021/07/26 01:55:31;;;;;;;3.83;2.78;;;19.50;99.90;;;;;;2106641;28;20028;-68
2021/07/26 01:56:32;;;;;;;4.13;3.40;;;19.50;99.90;;;;;;2105762;28;20024;-68
2021/07/26 01:57:33;;;;;;;4.05;2.90;;;19.50;99.90;;;;;;2105686;28;20020;-68
2021/07/26 01:58:34;;;;;;;3.80;3.03;;;19.50;99.90;;;;;;2105746;28;20024;-68
2021/07/26 01:59:36;;;;;;;3.03;2.80;;;19.50;99.90;;;;;;2105526;28;20518;-68
2021/07/26 02:00:37;;;;;;;7.38;3.42;;;19.50;99.90;;;;;;2105852;28;20032;-68
2021/07/26 02:01:37;;;;;;;5.22;3.00;;;19.50;99.90;;;;;;2105294;28;20103;-68
2021/07/26 02:02:38;;;;;;;4.30;2.80;;;19.50;99.90;;;;;;2106555;28;20032;-68
2021/07/26 02:03:38;;;;;;;7.15;3.00;;;19.50;99.90;;;;;;2107094;28;20035;-68
2021/07/26 02:04:39;;;;;;;5.25;2.60;;;19.50;99.90;;;;;;2107445;28;20376;-68
2021/07/26 02:05:39;;;;;;;2.90;2.63;;;19.50;99.90;;;;;;2107049;28;20099;-68
2021/07/26 02:06:40;;;;;;;5.45;3.22;;;19.50;99.90;;;;;;2106342;28;20420;-68
2021/07/26 02:07:40;;;;;;;7.25;3.05;;;19.50;99.90;;;;;;2106403;28;20020;-68
2021/07/26 02:08:41;;;;;;;5.93;3.00;;;19.50;99.90;;;;;;2107495;28;20024;-68
2021/07/26 02:09:42;;;;;;;4.43;3.30;;;19.40;99.90;;;;;;2106941;28;20024;-68
2021/07/26 02:10:42;;;;;;;3.75;2.75;;;19.40;99.90;;;;;;2107336;28;20032;-68
2021/07/26 02:11:43;;;;;;;5.57;3.17;;;19.40;99.90;;;;;;2107043;28;20531;-68
2021/07/26 02:12:43;;;;;;;5.32;3.15;;;19.40;99.90;;;;;;2106660;28;20062;-68
2021/07/26 02:13:44;;;;;;;3.88;3.13;;;19.40;99.90;;;;;;2107435;28;20028;-68
2021/07/26 02:14:44;;;;;;;3.92;2.78;;;19.40;99.90;;;;;;2107066;28;20069;-68
2021/07/26 02:15:45;;;;;;;7.30;3.50;;;19.30;99.90;;;;;;2107513;28;20070;-68
2021/07/26 02:16:51;;;;;;;5.68;2.95;;;19.30;99.90;;;;;;2107075;28;20027;-68
2021/07/26 02:17:51;;;;;;;2.95;2.70;;;19.30;99.90;;;;;;2107133;28;20024;-68
2021/07/26 02:18:52;;;;;;;7.60;2.95;;;19.30;99.90;;;;;;2107078;28;20111;-68
2021/07/26 02:19:52;;;;;;;4.13;2.72;;;19.30;99.90;;;;;;2113835;28;20028;-68
2021/07/26 02:20:53;;;;;;;3.38;3.05;;;19.30;99.90;;;;;;2115593;28;20452;-68
2021/07/26 02:21:53;;;;;;;8.35;2.75;;;19.30;99.90;;;;;;2114479;28;20059;-68
2021/07/26 02:22:54;;;;;;;3.88;2.85;;;19.30;99.90;;;;;;2114485;28;20027;-68
2021/07/26 02:23:55;;;;;;;4.78;2.97;;;19.30;99.90;;;;;;2115568;28;20031;-68
2021/07/26 02:24:55;;;;;;;4.90;2.85;;;19.30;99.90;;;;;;2115277;28;20463;-68
2021/07/26 02:25:56;;;;;;;4.15;2.92;;;19.30;99.90;;;;;;2115749;28;20451;-68
2021/07/26 02:26:57;;;;;;;5.60;3.53;;;19.30;99.90;;;;;;2115450;28;20106;-68
2021/07/26 02:27:58;;;;;;;5.10;2.85;;;19.20;99.90;;;;;;2115586;28;20039;-68
2021/07/26 02:28:58;;;;;;;9.18;3.53;;;19.30;99.90;;;;;;2115175;28;20031;-68
2021/07/26 02:29:59;;;;;;;7.40;2.85;;;19.20;99.90;;;;;;2115574;28;20015;-68
2021/07/26 02:30:59;;;;;;;6.03;2.78;;;19.20;99.90;;;;;;2115598;28;20016;-68
2021/07/26 02:32:00;;;;;;;6.35;2.70;;;19.20;99.90;;;;;;2109084;28;20028;-68
2021/07/26 02:33:00;;;;;;;4.95;2.70;;;19.20;99.90;;;;;;2106509;28;20059;-68
2021/07/26 02:34:01;;;;;;;2.80;2.58;;;19.20;99.90;;;;;;2109599;28;20013;-68
2021/07/26 02:35:02;;;;;;;3.97;2.95;;;19.20;99.90;;;;;;2115429;28;20407;-68
2021/07/26 02:36:03;;;;;;;3.70;2.83;;;19.20;99.90;;;;;;2115589;28;20099;-68
2021/07/26 02:37:04;;;;;;;4.80;2.55;;;19.20;99.90;;;;;;2115128;28;20016;-68
2021/07/26 02:38:04;;;;;;;4.10;2.95;;;19.10;99.90;;;;;;2115597;28;20095;-68
2021/07/26 02:39:06;;;;;;;7.13;2.75;;;19.10;99.90;;;;;;2115380;28;20054;-68
2021/07/26 02:40:07;;;;;;;4.70;2.97;;;19.10;99.90;;;;;;2115566;28;20023;-68
2021/07/26 02:41:15;;;;;;;3.40;2.97;;;19.10;99.90;;;;;;2115403;28;20111;-68
2021/07/26 02:42:16;;;;;;;5.07;3.17;;;19.10;99.90;;;;;;2104856;28;20549;-68
2021/07/26 02:43:16;;;;;;;4.25;2.70;;;19.10;99.90;;;;;;2098346;28;20774;-68
2021/07/26 02:44:17;;;;;;;3.20;3.00;;;19.10;99.90;;;;;;2107159;28;20035;-68
2021/07/26 02:45:17;;;;;;;3.25;2.72;;;19.10;99.90;;;;;;2106803;28;20116;-68
2021/07/26 02:46:18;;;;;;;3.50;2.60;;;19.10;99.90;;;;;;2107083;28;20175;-68
2021/07/26 02:47:18;;;;;;;4.15;2.85;;;19.10;99.90;;;;;;2106806;28;20024;-68
2021/07/26 02:48:19;;;;;;;5.43;2.40;;;19.10;99.90;;;;;;2106297;28;20076;-68
2021/07/26 02:49:19;;;;;;;5.13;2.78;;;19.00;99.90;;;;;;2106948;28;20051;-68
2021/07/26 02:50:21;;;;;;;6.38;2.60;;;19.10;99.90;;;;;;2107040;28;20016;-68
2021/07/26 02:51:21;;;;;;;3.13;2.83;;;19.10;99.90;;;;;;2106726;28;20486;-68
2021/07/26 02:52:22;;;;;;;3.25;2.58;;;19.00;99.90;;;;;;2106974;28;20440;-68
2021/07/26 02:53:22;;;;;;;4.05;2.88;;;19.00;99.90;;;;;;2109756;28;20022;-68
2021/07/26 02:54:23;;;;;;;4.90;3.05;;;19.00;99.90;;;;;;2115092;28;20034;-68
2021/07/26 02:55:23;;;;;;;4.78;3.20;;;19.00;99.90;;;;;;2114565;28;20027;-68
2021/07/26 02:56:24;;;;;;;3.92;3.40;;;19.00;99.90;;;;;;2108355;28;20483;-68
2021/07/26 02:57:25;;;;;;;6.13;2.88;;;19.00;99.90;;;;;;2107032;28;20059;-68
2021/07/26 02:58:26;;;;;;;3.38;2.85;;;19.00;99.90;;;;;;2106668;28;20031;-68
2021/07/26 02:59:27;;;;;;;4.03;2.90;;;19.00;99.90;;;;;;2106941;28;20035;-68
2021/07/26 03:00:27;;;;;;;4.07;3.17;;;19.00;99.90;;;;;;2106623;28;20094;-68
2021/07/26 03:01:32;;;;;;;6.22;3.20;;;19.00;99.90;;;;;;2106832;28;20025;-68
2021/07/26 03:02:36;;;;;;;4.43;2.70;;;19.00;99.90;;;;;;2106619;28;20020;-68
2021/07/26 03:03:38;;;;;;;4.63;2.67;;;19.00;99.90;;;;;;2106927;28;20023;-68
2021/07/26 03:04:38;;;;;;;3.00;2.75;;;19.00;99.90;;;;;;2106495;28;20024;-68
2021/07/26 03:05:39;;;;;;;4.47;3.30;;;18.90;99.90;;;;;;2107015;28;20107;-68
2021/07/26 03:06:39;;;;;;;4.22;2.53;;;18.90;99.90;;;;;;2106639;28;20094;-68
2021/07/26 03:07:40;;;;;;;3.45;3.15;;;18.90;99.90;;;;;;2106595;28;20604;-68
2021/07/26 03:08:41;;;;;;;3.58;2.20;;;18.90;99.90;;;;;;2106368;28;20028;-68
2021/07/26 03:09:41;;;;;;;4.97;2.80;;;18.90;99.90;;;;;;2111134;28;20020;-68
2021/07/26 03:10:42;;;;;;;5.53;2.90;;;18.90;99.90;;;;;;2115167;28;20027;-68
2021/07/26 03:11:42;;;;;;;4.93;3.03;;;18.90;99.90;;;;;;2115084;28;20039;-68
2021/07/26 03:12:43;;;;;;;6.60;3.50;;;18.90;99.90;;;;;;2114748;28;20027;-68
2021/07/26 03:13:47;;;;;;;3.55;2.78;;;18.90;99.90;;;;;;2114763;28;20372;-68
2021/07/26 03:14:47;;;;;;;3.65;2.80;;;18.90;99.90;;;;;;2109963;28;20502;-68
2021/07/26 03:15:47;;;;;;;7.22;3.10;;;18.90;99.90;;;;;;2108338;28;20486;-68
2021/07/26 03:16:48;;;;;;;4.88;3.22;;;18.90;99.90;;;;;;2115121;28;20073;-68
2021/07/26 03:17:49;;;;;;;3.63;2.78;;;18.90;99.90;;;;;;2115025;28;20023;-68
2021/07/26 03:18:50;;;;;;;4.05;2.67;;;18.90;99.90;;;;;;2114962;28;20027;-68
2021/07/26 03:19:55;;;;;;;4.57;2.92;;;18.90;99.90;;;;;;2115184;28;20030;-68
2021/07/26 03:20:55;;;;;;;4.57;3.00;;;18.90;99.90;;;;;;2115111;28;20015;-68
2021/07/26 03:22:33;;;;;;;3.45;2.90;;;18.90;99.90;;;;;;2114654;28;20026;-68
2021/07/26 03:23:33;;;;;;;7.43;2.80;;;18.80;99.90;;;;;;2115176;28;20024;-68
2021/07/26 03:24:34;;;;;;;3.38;2.45;;;18.80;99.90;;;;;;2115205;28;20049;-68
2021/07/26 03:25:40;;;;;;;4.05;3.15;;;18.80;99.90;;;;;;2115003;28;20043;-68
2021/07/26 03:26:40;;;;;;;4.72;3.08;;;18.80;99.90;;;;;;2115216;28;20039;-68
2021/07/26 03:27:41;;;;;;;3.90;2.80;;;18.80;99.90;;;;;;2114899;28;20030;-68
2021/07/26 03:28:41;;;;;;;5.70;2.83;;;18.80;99.90;;;;;;2110126;28;20036;-68
2021/07/26 03:29:42;;;;;;;3.15;2.85;;;18.80;99.90;;;;;;2106623;28;20024;-68
2021/07/26 03:30:43;;;;;;;3.47;2.90;;;18.80;99.90;;;;;;2106751;28;20032;-68
2021/07/26 03:31:43;;;;;;;4.47;2.95;;;18.80;99.90;;;;;;2106130;28;20036;-68
2021/07/26 03:32:45;;;;;;;3.53;2.60;;;18.80;99.90;;;;;;2105379;28;20089;-68
2021/07/26 03:33:45;;;;;;;4.80;2.95;;;18.80;99.90;;;;;;2105925;28;20103;-68
2021/07/26 03:34:46;;;;;;;3.75;3.22;;;18.80;99.90;;;;;;2106693;28;20028;-68
2021/07/26 03:35:46;;;;;;;4.72;2.92;;;18.80;99.90;;;;;;2106369;28;20031;-68
2021/07/26 03:36:47;;;;;;;4.93;2.70;;;18.80;99.90;;;;;;2106710;28;20035;-68
2021/07/26 03:37:48;;;;;;;4.07;2.90;;;18.80;99.90;;;;;;2106454;28;20036;-68
2021/07/26 03:38:48;;;;;;;4.40;2.92;;;18.70;99.90;;;;;;2106682;28;20367;-68
2021/07/26 03:39:49;;;;;;;6.72;3.00;;;18.80;99.90;;;;;;2106501;28;20035;-68
2021/07/26 03:40:50;;;;;;;6.40;3.03;;;18.70;99.90;;;;;;2106270;28;20047;-68
2021/07/26 03:41:57;;;;;;;3.05;2.33;;;18.70;99.90;;;;;;2106015;28;20038;-68
2021/07/26 03:42:58;;;;;;;6.78;3.08;;;18.70;99.90;;;;;;2106000;28;20042;-68
2021/07/26 03:43:59;;;;;;;4.05;2.58;;;18.70;99.90;;;;;;2106397;28;20020;-68
2021/07/26 03:44:59;;;;;;;6.47;2.60;;;18.70;99.90;;;;;;2106481;28;20090;-68
2021/07/26 03:46:00;;;;;;;3.00;2.70;;;18.70;99.90;;;;;;2106559;28;20024;-68
2021/07/26 03:47:01;;;;;;;6.32;2.85;;;18.70;99.90;;;;;;2106555;28;20103;-68
2021/07/26 03:48:01;;;;;;;3.08;2.42;;;18.70;99.90;;;;;;2106316;28;20032;-68
2021/07/26 03:49:02;;;;;;;3.20;2.50;;;18.70;99.90;;;;;;2106295;28;20380;-68
2021/07/26 03:50:03;;;;;;;3.05;2.53;;;18.70;99.90;;;;;;2106508;28;20154;-68
2021/07/26 03:51:03;;;;;;;5.70;2.97;;;18.70;99.90;;;;;;2104168;28;20032;-68
2021/07/26 03:52:04;;;;;;;3.38;2.55;;;18.70;99.90;;;;;;2102988;28;20024;-68
2021/07/26 03:53:05;;;;;;;3.70;2.90;;;18.70;99.90;;;;;;2110985;28;20103;-68
2021/07/26 03:54:05;;;;;;;4.00;3.05;;;18.70;99.90;;;;;;2114580;28;20015;-68
2021/07/26 03:55:07;;;;;;;8.23;2.65;;;18.70;99.90;;;;;;2106966;28;20027;-68
2021/07/26 03:56:07;;;;;;;3.72;2.75;;;18.70;99.90;;;;;;2106199;28;20008;-68
2021/07/26 03:57:08;;;;;;;4.90;2.97;;;18.70;99.90;;;;;;2105301;28;20020;-68
2021/07/26 03:58:08;;;;;;;2.92;2.50;;;18.70;99.90;;;;;;2106234;28;20024;-68
2021/07/26 03:59:09;;;;;;;5.60;3.03;;;18.70;99.90;;;;;;2105694;28;20459;-68
2021/07/26 04:00:11;;;;;;;7.60;3.17;;;18.70;99.90;;;;;;2105067;28;20109;-68
2021/07/26 04:01:12;;;;;;;4.70;3.10;;;18.70;99.90;;;;;;2098874;28;20510;-68
2021/07/26 04:02:12;;;;;;;3.33;3.03;;;18.70;99.90;;;;;;2108021;28;20418;-68
2021/07/26 04:03:46;;;;;;;3.15;2.90;;;18.70;99.90;;;;;;2107504;28;20060;-68
2021/07/26 04:04:41;;;;;;;5.60;2.92;;;18.70;99.90;;;;;;2103655;28;20067;-68
2021/07/26 04:05:46;;;;;;;3.25;2.80;;;18.70;99.90;;;;;;2110861;28;20060;-68
2021/07/26 04:06:51;;;;;;;6.20;3.85;;;18.70;99.90;;;;;;2113601;28;20023;-68
2021/07/26 04:07:52;;;;;;;3.60;3.20;;;18.70;99.90;;;;;;2112818;27;20019;-68
2021/07/26 04:08:54;;;;;;;3.65;3.33;;;18.70;99.90;;;;;;2106203;28;20016;-68
2021/07/26 04:10:01;;;;;;;4.68;2.75;;;18.70;99.90;;;;;;2106245;28;20016;-68
2021/07/26 04:11:10;;;;;;;3.53;3.17;;;18.70;99.90;;;;;;2107222;28;20023;-68
2021/07/26 04:12:16;;;;;;;4.90;3.00;;;18.70;99.90;;;;;;2106209;28;20028;-68
2021/07/26 04:13:17;;;;;;;3.85;2.97;;;18.70;99.90;;;;;;2105624;28;20149;-68
2021/07/26 04:14:21;;;;;;;6.00;3.65;;;18.70;99.90;;;;;;2106200;28;20024;-68
2021/07/26 04:15:22;;;;;;;4.57;3.13;;;18.70;99.90;;;;;;2106223;28;20023;-68
2021/07/26 04:16:22;;;;;;;9.10;3.53;;;18.70;99.90;;;;;;2106117;28;20058;-68
2021/07/26 04:17:23;;;;;;;3.20;2.88;;;18.70;99.90;;;;;;2105917;28;20020;-68
2021/07/26 04:18:25;;;;;;;5.10;3.08;;;18.70;99.90;;;;;;2106120;28;20082;-68
2021/07/26 04:19:25;;;;;;;3.65;2.95;;;18.70;99.90;;;;;;2107587;28;20047;-68
2021/07/26 04:20:26;;;;;;;6.60;2.80;;;18.70;99.90;;;;;;2101283;28;20021;-68
2021/07/26 04:21:32;;;;;;;3.45;3.13;;;18.70;99.90;;;;;;2100232;28;20024;-68
2021/07/26 04:22:32;;;;;;;4.25;2.95;;;18.70;99.90;;;;;;2099255;28;20051;-68
2021/07/26 04:23:33;;;;;;;3.78;3.05;;;18.80;99.90;;;;;;2097894;28;20031;-68
2021/07/26 04:24:33;;;;;;;4.53;3.10;;;18.80;99.90;;;;;;2099936;28;20024;-68
2021/07/26 04:25:34;;;;;;;3.67;3.17;;;18.80;99.90;;;;;;2100866;28;20058;-68
2021/07/26 04:26:34;;;;;;;5.53;3.30;;;18.80;99.90;;;;;;2102107;28;20047;-68
2021/07/26 04:27:36;;;;;;;4.63;3.05;;;18.80;99.90;;;;;;2101267;28;20024;-68
2021/07/26 04:28:37;;;;;;;3.63;3.13;;;18.90;99.90;;;;;;2104762;28;20417;-68
2021/07/26 04:29:37;;;;;;;4.82;2.83;;;18.90;99.90;;;;;;2102219;28;20024;-68
2021/07/26 04:30:38;;;;;;;4.13;3.13;;;18.90;99.90;;;;;;2100179;28;20427;-68
2021/07/26 04:31:38;;;;;;;7.75;3.45;;;18.90;99.90;;;;;;2100097;28;20024;-68
2021/07/26 04:32:47;;;;;;;7.40;3.60;;;18.90;99.90;;;;;;2101587;28;20377;-68
2021/07/26 04:33:48;;;;;;;6.43;3.30;;;18.90;99.90;;;;;;2104441;28;20030;-68
2021/07/26 04:34:48;;;;;;;3.92;2.97;;;18.90;99.90;;;;;;2106036;28;20028;-68
2021/07/26 04:35:49;;;;;;;3.95;2.95;;;18.90;99.90;;;;;;2101380;28;20103;-68
2021/07/26 04:36:50;;;;;;;4.72;3.00;;;18.90;99.90;;;;;;2102158;28;20020;-68
2021/07/26 04:37:50;;;;;;;10.57;3.50;;;18.90;99.90;;;;;;2105944;28;20029;-68
2021/07/26 04:38:51;;;;;;;5.30;3.28;;;19.00;99.90;;;;;;2105422;28;20356;-68
2021/07/26 04:39:51;;;;;;;5.35;3.55;;;19.00;99.90;;;;;;2104498;28;20055;-68
2021/07/26 04:40:52;;;;;;;2.90;2.70;;;19.00;99.90;;;;;;2105223;28;20024;-68
2021/07/26 04:41:52;;;;;;;6.40;3.20;;;19.00;99.90;;;;;;2105350;28;20016;-68
2021/07/26 04:42:54;;;;;;;3.70;3.03;;;19.10;99.90;;;;;;2105396;28;20031;-68
2021/07/26 04:43:54;;;;;;;3.55;3.25;;;19.10;99.90;;;;;;2105384;28;20111;-68
2021/07/26 04:44:55;;;;;;;3.92;3.55;;;19.20;99.90;;;;;;2107600;28;20073;-68
2021/07/26 04:45:56;;;;;;;4.43;2.90;;;19.20;99.90;;;;;;2101595;28;20048;-68
2021/07/26 04:46:56;;;;;;;3.10;2.90;;;19.30;99.90;;;;;;2106426;28;20055;-68
2021/07/26 04:47:57;;;;;;;4.00;3.30;;;19.30;99.90;;;;;;2107399;28;20055;-68
2021/07/26 04:48:57;;;;;;;3.88;3.38;;;19.30;99.90;;;;;;2107418;28;20379;-68
2021/07/26 04:49:58;;;;;;;3.47;3.17;;;19.30;99.90;;;;;;2107658;28;20047;-68
2021/07/26 04:50:59;;;;;;;5.57;3.03;;;19.30;99.90;;;;;;2107501;28;20020;-68
2021/07/26 04:51:59;;;;;;;5.60;3.50;;;19.30;99.90;;;;;;2107235;28;20024;-68
2021/07/26 04:53:00;;;;;;;3.22;2.90;;;19.30;99.90;;;;;;2104851;28;20043;-68
2021/07/26 04:54:00;;;;;;;4.97;3.10;;;19.30;99.90;;;;;;2106760;28;20099;-68
2021/07/26 04:55:01;;;;;;;3.30;3.00;;;19.30;99.90;;;;;;2107341;28;20024;-68
2021/07/26 04:56:02;;;;;;;5.00;3.17;;;19.40;99.90;;;;;;2107638;28;20016;-68
2021/07/26 04:57:02;;;;;;;3.50;2.75;;;19.40;99.90;;;;;;2105761;28;20046;-68
2021/07/26 04:58:03;;;;;;;4.22;3.10;;;19.40;99.90;;;;;;2107565;28;20032;-68
2021/07/26 04:59:03;;;;;;;3.08;2.78;;;19.40;99.90;;;;;;2107379;28;20066;-68
2021/07/26 05:00:07;;;;;;;3.78;3.20;;;19.40;99.90;;;;;;2104132;28;20380;-68
2021/07/26 05:01:08;;;;;;;5.38;3.38;;;19.50;99.90;;;;;;2099233;28;20107;-68
2021/07/26 05:02:08;;;;;;;3.33;3.05;;;19.50;99.90;;;;;;2106924;28;20020;-68
2021/07/26 05:03:09;;;;;;;3.33;3.03;;;19.60;99.90;;;;;;2106644;28;20371;-68
2021/07/26 05:04:09;;;;;;;3.40;2.95;;;19.60;99.90;;;;;;2107338;28;20091;-68
2021/07/26 05:05:10;;;;;;;3.47;3.17;;;19.70;99.90;;;;;;2106164;28;20431;-68
2021/07/26 05:06:11;;;;;;;3.47;3.17;;;19.80;99.90;;;;;;2104167;28;20030;-68
2021/07/26 05:07:11;;;;;;;3.97;2.90;;;19.90;99.90;;;;;;2107138;28;20032;-68
2021/07/26 05:08:12;;;;;;;3.15;2.63;;;19.90;99.90;;;;;;2107271;28;20124;-68
2021/07/26 05:09:13;;;;;;;3.30;2.97;;;20.00;99.90;;;;;;2107224;28;20024;-68
2021/07/26 05:10:14;;;;;;;3.83;2.88;;;20.10;99.90;;;;;;2107050;28;20057;-68
2021/07/26 05:11:20;;;;;;;5.38;2.83;;;20.10;99.90;;;;;;2107199;28;20495;-68
2021/07/26 05:12:21;;;;;;;3.17;2.85;;;20.30;99.90;;;;;;2107411;28;20024;-68
2021/07/26 05:13:21;;;;;;;3.47;2.72;;;20.30;99.90;;;;;;2105888;28;20028;-68
2021/07/26 05:14:22;;;;;;;3.58;2.90;;;20.40;99.90;;;;;;2106699;28;20107;-68
2021/07/26 05:15:23;;;;;;;4.15;2.75;;;20.50;99.90;;;;;;2107102;28;20020;-68
2021/07/26 05:16:23;;;;;;;5.75;3.13;;;20.70;99.90;;;;;;2105774;28;20035;-68
2021/07/26 05:17:26;;;;;;;2.78;2.58;;;20.80;99.90;;;;;;2105727;28;20020;-68
2021/07/26 05:18:26;;;;;;;3.17;2.88;;;20.80;99.90;;;;;;2107416;28;20107;-68
2021/07/26 05:19:27;;;;;;;3.40;2.92;;;20.90;99.90;;;;;;2106791;28;20039;-68
2021/07/26 05:20:27;;;;;;;2.83;2.58;;;21.00;99.90;;;;;;2107331;28;20081;-68
2021/07/26 05:21:28;;;;;;;3.78;3.13;;;21.10;99.90;;;;;;2107075;28;20103;-68